sensor_id;sensor_type;location;lat;lon;timestamp;pressure;altitude;pressure_sealevel;temperature;humidity
25944;BME280;13742;49.306;8.636;2024-01-15T00:00:43;99631.59;;;-1.90;83.63
25944;BME280;13742;49.306;8.636;2024-01-15T00:01:44;99632.83;;;-1.89;83.65
25944;BME280;13742;49.306;8.636;2024-01-15T00:02:43;99633.23;;;-1.88;83.91
25944;BME280;13742;49.306;8.636;2024-01-15T00:03:43;99632.05;;;-1.87;83.94
25944;BME280;13742;49.306;8.636;2024-01-15T00:04:43;99634.16;;;-1.87;83.87
25944;BME280;13742;49.306;8.636;2024-01-15T00:05:44;99633.02;;;-1.86;83.76
25944;BME280;13742;49.306;8.636;2024-01-15T00:06:43;99629.66;;;-1.86;83.79
25944;BME280;13742;49.306;8.636;2024-01-15T00:07:43;99631.63;;;-1.85;83.79
25944;BME280;13742;49.306;8.636;2024-01-15T00:08:43;99631.67;;;-1.85;83.78
25944;BME280;13742;49.306;8.636;2024-01-15T00:09:43;99626.77;;;-1.85;83.67
25944;BME280;13742;49.306;8.636;2024-01-15T00:10:43;99625.48;;;-1.85;83.74
25944;BME280;13742;49.306;8.636;2024-01-15T00:11:43;99621.11;;;-1.84;83.70
25944;BME280;13742;49.306;8.636;2024-01-15T00:12:43;99621.48;;;-1.85;83.73
25944;BME280;13742;49.306;8.636;2024-01-15T00:13:43;99618.73;;;-1.85;83.93
25944;BME280;13742;49.306;8.636;2024-01-15T00:14:43;99624.52;;;-1.85;83.92
25944;BME280;13742;49.306;8.636;2024-01-15T00:15:43;99624.94;;;-1.83;83.93
25944;BME280;13742;49.306;8.636;2024-01-15T00:16:43;99626.93;;;-1.83;83.95
25944;BME280;13742;49.306;8.636;2024-01-15T00:17:43;99621.75;;;-1.82;83.85
25944;BME280;13742;49.306;8.636;2024-01-15T00:18:43;99625.75;;;-1.82;83.88
25944;BME280;13742;49.306;8.636;2024-01-15T00:19:43;99620.66;;;-1.84;83.79
25944;BME280;13742;49.306;8.636;2024-01-15T00:20:43;99622.23;;;-1.83;83.93
25944;BME280;13742;49.306;8.636;2024-01-15T00:21:44;99627.25;;;-1.82;83.87
25944;BME280;13742;49.306;8.636;2024-01-15T00:22:43;99626.88;;;-1.81;83.98
25944;BME280;13742;49.306;8.636;2024-01-15T00:23:46;99617.38;;;-1.83;84.10
25944;BME280;13742;49.306;8.636;2024-01-15T00:24:43;99625.14;;;-1.82;84.02
25944;BME280;13742;49.306;8.636;2024-01-15T00:25:43;99620.45;;;-1.83;84.10
25944;BME280;13742;49.306;8.636;2024-01-15T00:26:43;99622.75;;;-1.82;84.13
25944;BME280;13742;49.306;8.636;2024-01-15T00:27:43;99614.02;;;-1.82;84.17
25944;BME280;13742;49.306;8.636;2024-01-15T00:28:43;99610.54;;;-1.81;83.98
25944;BME280;13742;49.306;8.636;2024-01-15T00:29:43;99612.11;;;-1.82;84.12
25944;BME280;13742;49.306;8.636;2024-01-15T00:30:43;99605.28;;;-1.82;84.14
25944;BME280;13742;49.306;8.636;2024-01-15T00:31:43;99605.44;;;-1.82;84.09
25944;BME280;13742;49.306;8.636;2024-01-15T00:32:43;99600.14;;;-1.81;84.19
25944;BME280;13742;49.306;8.636;2024-01-15T00:33:43;99596.58;;;-1.81;84.10
25944;BME280;13742;49.306;8.636;2024-01-15T00:34:43;99589.88;;;-1.82;84.08
25944;BME280;13742;49.306;8.636;2024-01-15T00:35:43;99598.69;;;-1.81;84.30
25944;BME280;13742;49.306;8.636;2024-01-15T00:36:43;99595.13;;;-1.83;84.27
25944;BME280;13742;49.306;8.636;2024-01-15T00:37:43;99591.90;;;-1.83;84.13
25944;BME280;13742;49.306;8.636;2024-01-15T00:38:44;99590.81;;;-1.83;84.24
25944;BME280;13742;49.306;8.636;2024-01-15T00:39:43;99589.08;;;-1.83;84.32
25944;BME280;13742;49.306;8.636;2024-01-15T00:40:43;99589.52;;;-1.83;84.35
25944;BME280;13742;49.306;8.636;2024-01-15T00:41:43;99594.84;;;-1.82;84.46
25944;BME280;13742;49.306;8.636;2024-01-15T00:42:43;99588.78;;;-1.82;84.45
25944;BME280;13742;49.306;8.636;2024-01-15T00:43:44;99589.26;;;-1.81;84.45
25944;BME280;13742;49.306;8.636;2024-01-15T00:44:43;99585.25;;;-1.80;84.47
25944;BME280;13742;49.306;8.636;2024-01-15T00:45:43;99589.38;;;-1.81;84.53
25944;BME280;13742;49.306;8.636;2024-01-15T00:46:44;99592.45;;;-1.80;84.46
25944;BME280;13742;49.306;8.636;2024-01-15T00:47:44;99586.20;;;-1.79;84.50
25944;BME280;13742;49.306;8.636;2024-01-15T00:48:43;99587.58;;;-1.78;84.34
25944;BME280;13742;49.306;8.636;2024-01-15T00:49:43;99586.30;;;-1.79;84.34
25944;BME280;13742;49.306;8.636;2024-01-15T00:50:43;99587.05;;;-1.79;84.46
25944;BME280;13742;49.306;8.636;2024-01-15T00:51:43;99585.72;;;-1.79;84.46
25944;BME280;13742;49.306;8.636;2024-01-15T00:52:43;99587.26;;;-1.78;84.53
25944;BME280;13742;49.306;8.636;2024-01-15T00:53:43;99586.48;;;-1.78;84.43
25944;BME280;13742;49.306;8.636;2024-01-15T00:54:43;99584.86;;;-1.78;84.31
25944;BME280;13742;49.306;8.636;2024-01-15T00:55:43;99582.64;;;-1.78;84.39
25944;BME280;13742;49.306;8.636;2024-01-15T00:56:43;99588.20;;;-1.77;84.51
25944;BME280;13742;49.306;8.636;2024-01-15T00:57:43;99592.30;;;-1.77;84.42
25944;BME280;13742;49.306;8.636;2024-01-15T00:58:43;99589.05;;;-1.75;84.41
25944;BME280;13742;49.306;8.636;2024-01-15T00:59:43;99587.43;;;-1.75;84.37
25944;BME280;13742;49.306;8.636;2024-01-15T01:00:43;99586.09;;;-1.76;84.37
25944;BME280;13742;49.306;8.636;2024-01-15T01:01:43;99586.47;;;-1.76;84.45
25944;BME280;13742;49.306;8.636;2024-01-15T01:02:43;99591.28;;;-1.76;84.49
25944;BME280;13742;49.306;8.636;2024-01-15T01:03:43;99593.98;;;-1.76;84.45
25944;BME280;13742;49.306;8.636;2024-01-15T01:04:43;99591.64;;;-1.75;84.59
25944;BME280;13742;49.306;8.636;2024-01-15T01:05:44;99594.25;;;-1.74;84.46
25944;BME280;13742;49.306;8.636;2024-01-15T01:06:43;99590.67;;;-1.75;84.60
25944;BME280;13742;49.306;8.636;2024-01-15T01:07:43;99589.77;;;-1.74;84.57
25944;BME280;13742;49.306;8.636;2024-01-15T01:08:43;99583.94;;;-1.74;84.72
25944;BME280;13742;49.306;8.636;2024-01-15T01:09:44;99583.13;;;-1.73;84.59
25944;BME280;13742;49.306;8.636;2024-01-15T01:10:43;99583.25;;;-1.73;84.58
25944;BME280;13742;49.306;8.636;2024-01-15T01:11:43;99584.91;;;-1.73;84.61
25944;BME280;13742;49.306;8.636;2024-01-15T01:12:43;99580.42;;;-1.74;84.72
25944;BME280;13742;49.306;8.636;2024-01-15T01:13:43;99578.72;;;-1.73;84.65
25944;BME280;13742;49.306;8.636;2024-01-15T01:14:43;99578.92;;;-1.73;84.83
25944;BME280;13742;49.306;8.636;2024-01-15T01:15:43;99575.92;;;-1.73;84.90
25944;BME280;13742;49.306;8.636;2024-01-15T01:16:43;99573.00;;;-1.72;84.96
25944;BME280;13742;49.306;8.636;2024-01-15T01:17:43;99572.89;;;-1.72;84.97
25944;BME280;13742;49.306;8.636;2024-01-15T01:18:43;99578.34;;;-1.71;85.12
25944;BME280;13742;49.306;8.636;2024-01-15T01:19:43;99578.34;;;-1.72;85.01
25944;BME280;13742;49.306;8.636;2024-01-15T01:20:43;99579.15;;;-1.71;85.03
25944;BME280;13742;49.306;8.636;2024-01-15T01:21:43;99582.98;;;-1.70;85.17
25944;BME280;13742;49.306;8.636;2024-01-15T01:22:43;99580.39;;;-1.70;85.12
25944;BME280;13742;49.306;8.636;2024-01-15T01:23:43;99582.08;;;-1.69;85.16
25944;BME280;13742;49.306;8.636;2024-01-15T01:24:43;99581.97;;;-1.70;85.29
25944;BME280;13742;49.306;8.636;2024-01-15T01:25:43;99577.48;;;-1.70;85.19
25944;BME280;13742;49.306;8.636;2024-01-15T01:26:46;99581.55;;;-1.69;85.29
25944;BME280;13742;49.306;8.636;2024-01-15T01:27:43;99580.83;;;-1.69;85.20
25944;BME280;13742;49.306;8.636;2024-01-15T01:28:43;99584.02;;;-1.68;85.16
25944;BME280;13742;49.306;8.636;2024-01-15T01:29:43;99583.53;;;-1.68;85.29
25944;BME280;13742;49.306;8.636;2024-01-15T01:30:43;99579.27;;;-1.67;85.14
25944;BME280;13742;49.306;8.636;2024-01-15T01:31:44;99580.72;;;-1.66;85.27
25944;BME280;13742;49.306;8.636;2024-01-15T01:32:43;99580.03;;;-1.66;85.23
25944;BME280;13742;49.306;8.636;2024-01-15T01:33:43;99579.18;;;-1.66;85.16
25944;BME280;13742;49.306;8.636;2024-01-15T01:34:43;99575.50;;;-1.65;85.23
25944;BME280;13742;49.306;8.636;2024-01-15T01:35:45;99580.27;;;-1.65;85.18
25944;BME280;13742;49.306;8.636;2024-01-15T01:36:43;99578.52;;;-1.64;85.21
25944;BME280;13742;49.306;8.636;2024-01-15T01:37:43;99576.37;;;-1.63;85.39
25944;BME280;13742;49.306;8.636;2024-01-15T01:38:43;99575.96;;;-1.63;85.37
25944;BME280;13742;49.306;8.636;2024-01-15T01:39:43;99574.61;;;-1.62;85.39
25944;BME280;13742;49.306;8.636;2024-01-15T01:40:43;99577.85;;;-1.62;85.48
25944;BME280;13742;49.306;8.636;2024-01-15T01:41:43;99581.41;;;-1.62;85.40
25944;BME280;13742;49.306;8.636;2024-01-15T01:42:43;99578.17;;;-1.62;85.39
25944;BME280;13742;49.306;8.636;2024-01-15T01:43:43;99581.94;;;-1.62;85.52
25944;BME280;13742;49.306;8.636;2024-01-15T01:44:43;99576.67;;;-1.61;85.45
25944;BME280;13742;49.306;8.636;2024-01-15T01:45:43;99581.89;;;-1.61;85.29
25944;BME280;13742;49.306;8.636;2024-01-15T01:46:43;99579.91;;;-1.61;85.39
25944;BME280;13742;49.306;8.636;2024-01-15T01:47:43;99581.77;;;-1.61;85.46
25944;BME280;13742;49.306;8.636;2024-01-15T01:48:43;99580.75;;;-1.61;85.46
25944;BME280;13742;49.306;8.636;2024-01-15T01:49:43;99585.80;;;-1.59;85.45
25944;BME280;13742;49.306;8.636;2024-01-15T01:50:44;99582.88;;;-1.59;85.55
25944;BME280;13742;49.306;8.636;2024-01-15T01:51:44;99583.68;;;-1.58;85.50
25944;BME280;13742;49.306;8.636;2024-01-15T01:52:43;99581.75;;;-1.59;85.45
25944;BME280;13742;49.306;8.636;2024-01-15T01:53:44;99577.06;;;-1.59;85.42
25944;BME280;13742;49.306;8.636;2024-01-15T01:54:43;99581.63;;;-1.59;85.46
25944;BME280;13742;49.306;8.636;2024-01-15T01:55:43;99581.46;;;-1.58;85.32
25944;BME280;13742;49.306;8.636;2024-01-15T01:56:43;99581.14;;;-1.58;85.39
25944;BME280;13742;49.306;8.636;2024-01-15T01:57:44;99582.72;;;-1.59;85.43
25944;BME280;13742;49.306;8.636;2024-01-15T01:58:44;99580.81;;;-1.59;85.43
25944;BME280;13742;49.306;8.636;2024-01-15T01:59:43;99581.78;;;-1.58;85.37
25944;BME280;13742;49.306;8.636;2024-01-15T02:00:43;99580.61;;;-1.58;85.16
25944;BME280;13742;49.306;8.636;2024-01-15T02:01:44;99580.61;;;-1.59;85.15
25944;BME280;13742;49.306;8.636;2024-01-15T02:02:43;99575.64;;;-1.59;85.02
25944;BME280;13742;49.306;8.636;2024-01-15T02:03:43;99573.38;;;-1.59;85.17
25944;BME280;13742;49.306;8.636;2024-01-15T02:04:43;99574.30;;;-1.59;85.06
25944;BME280;13742;49.306;8.636;2024-01-15T02:05:44;99570.91;;;-1.59;85.04
25944;BME280;13742;49.306;8.636;2024-01-15T02:06:43;99570.78;;;-1.59;85.17
25944;BME280;13742;49.306;8.636;2024-01-15T02:07:43;99570.09;;;-1.59;85.21
25944;BME280;13742;49.306;8.636;2024-01-15T02:08:43;99568.09;;;-1.61;85.24
25944;BME280;13742;49.306;8.636;2024-01-15T02:09:44;99566.47;;;-1.60;85.38
25944;BME280;13742;49.306;8.636;2024-01-15T02:10:43;99569.02;;;-1.60;85.33
25944;BME280;13742;49.306;8.636;2024-01-15T02:11:43;99561.62;;;-1.61;85.36
25944;BME280;13742;49.306;8.636;2024-01-15T02:12:43;99564.80;;;-1.60;85.39
25944;BME280;13742;49.306;8.636;2024-01-15T02:13:43;99565.97;;;-1.59;85.21
25944;BME280;13742;49.306;8.636;2024-01-15T02:14:43;99565.97;;;-1.58;85.16
25944;BME280;13742;49.306;8.636;2024-01-15T02:15:43;99561.44;;;-1.58;85.21
25944;BME280;13742;49.306;8.636;2024-01-15T02:16:43;99563.02;;;-1.58;85.29
25944;BME280;13742;49.306;8.636;2024-01-15T02:18:44;99560.70;;;-1.58;85.35
25944;BME280;13742;49.306;8.636;2024-01-15T02:19:43;99558.28;;;-1.59;85.37
25944;BME280;13742;49.306;8.636;2024-01-15T02:20:44;99556.38;;;-1.59;85.32
25944;BME280;13742;49.306;8.636;2024-01-15T02:21:43;99551.16;;;-1.59;85.23
25944;BME280;13742;49.306;8.636;2024-01-15T02:22:43;99555.03;;;-1.58;85.36
25944;BME280;13742;49.306;8.636;2024-01-15T02:23:43;99552.66;;;-1.58;85.35
25944;BME280;13742;49.306;8.636;2024-01-15T02:24:43;99546.49;;;-1.61;85.35
25944;BME280;13742;49.306;8.636;2024-01-15T02:25:45;99550.45;;;-1.61;85.42
25944;BME280;13742;49.306;8.636;2024-01-15T02:26:43;99545.63;;;-1.60;85.40
25944;BME280;13742;49.306;8.636;2024-01-15T02:27:43;99550.55;;;-1.59;85.50
25944;BME280;13742;49.306;8.636;2024-01-15T02:28:44;99547.69;;;-1.60;85.38
25944;BME280;13742;49.306;8.636;2024-01-15T02:29:43;99548.03;;;-1.61;85.43
25944;BME280;13742;49.306;8.636;2024-01-15T02:30:43;99549.38;;;-1.59;85.53
25944;BME280;13742;49.306;8.636;2024-01-15T02:31:43;99551.73;;;-1.59;85.41
25944;BME280;13742;49.306;8.636;2024-01-15T02:32:43;99551.25;;;-1.60;85.43
25944;BME280;13742;49.306;8.636;2024-01-15T02:33:43;99556.44;;;-1.61;85.52
25944;BME280;13742;49.306;8.636;2024-01-15T02:34:43;99547.59;;;-1.62;85.62
25944;BME280;13742;49.306;8.636;2024-01-15T02:35:43;99547.22;;;-1.61;85.53
25944;BME280;13742;49.306;8.636;2024-01-15T02:36:43;99549.56;;;-1.61;85.48
25944;BME280;13742;49.306;8.636;2024-01-15T02:37:43;99554.94;;;-1.60;85.55
25944;BME280;13742;49.306;8.636;2024-01-15T02:38:43;99555.21;;;-1.59;85.50
25944;BME280;13742;49.306;8.636;2024-01-15T02:39:43;99556.42;;;-1.58;85.54
25944;BME280;13742;49.306;8.636;2024-01-15T02:40:44;99557.56;;;-1.59;85.56
25944;BME280;13742;49.306;8.636;2024-01-15T02:41:43;99558.44;;;-1.59;85.46
25944;BME280;13742;49.306;8.636;2024-01-15T02:42:43;99555.28;;;-1.58;85.60
25944;BME280;13742;49.306;8.636;2024-01-15T02:43:43;99557.07;;;-1.58;85.53
25944;BME280;13742;49.306;8.636;2024-01-15T02:44:43;99552.66;;;-1.59;85.62
25944;BME280;13742;49.306;8.636;2024-01-15T02:45:43;99553.79;;;-1.58;85.42
25944;BME280;13742;49.306;8.636;2024-01-15T02:46:43;99552.35;;;-1.57;85.41
25944;BME280;13742;49.306;8.636;2024-01-15T02:47:43;99546.09;;;-1.58;85.30
25944;BME280;13742;49.306;8.636;2024-01-15T02:48:43;99547.70;;;-1.58;85.29
25944;BME280;13742;49.306;8.636;2024-01-15T02:49:43;99547.70;;;-1.58;85.33
25944;BME280;13742;49.306;8.636;2024-01-15T02:50:43;99543.92;;;-1.59;85.29
25944;BME280;13742;49.306;8.636;2024-01-15T02:51:43;99545.86;;;-1.58;85.46
25944;BME280;13742;49.306;8.636;2024-01-15T02:52:43;99545.48;;;-1.58;85.49
25944;BME280;13742;49.306;8.636;2024-01-15T02:53:43;99545.33;;;-1.58;85.37
25944;BME280;13742;49.306;8.636;2024-01-15T02:54:43;99543.22;;;-1.58;85.33
25944;BME280;13742;49.306;8.636;2024-01-15T02:55:43;99544.69;;;-1.59;85.37
25944;BME280;13742;49.306;8.636;2024-01-15T02:56:43;99553.31;;;-1.60;85.39
25944;BME280;13742;49.306;8.636;2024-01-15T02:57:43;99541.27;;;-1.60;85.48
25944;BME280;13742;49.306;8.636;2024-01-15T02:58:43;99544.20;;;-1.59;85.41
25944;BME280;13742;49.306;8.636;2024-01-15T02:59:43;99546.63;;;-1.59;85.48
25944;BME280;13742;49.306;8.636;2024-01-15T03:00:43;99542.30;;;-1.58;85.21
25944;BME280;13742;49.306;8.636;2024-01-15T03:01:43;99547.14;;;-1.57;85.38
25944;BME280;13742;49.306;8.636;2024-01-15T03:02:44;99541.82;;;-1.60;85.36
25944;BME280;13742;49.306;8.636;2024-01-15T03:03:43;99537.41;;;-1.59;85.29
25944;BME280;13742;49.306;8.636;2024-01-15T03:04:44;99537.94;;;-1.60;85.31
25944;BME280;13742;49.306;8.636;2024-01-15T03:05:43;99536.48;;;-1.60;85.33
25944;BME280;13742;49.306;8.636;2024-01-15T03:06:43;99540.53;;;-1.60;85.32
25944;BME280;13742;49.306;8.636;2024-01-15T03:07:43;99536.90;;;-1.61;85.46
25944;BME280;13742;49.306;8.636;2024-01-15T03:08:43;99533.70;;;-1.61;85.43
25944;BME280;13742;49.306;8.636;2024-01-15T03:09:43;99529.63;;;-1.62;85.40
25944;BME280;13742;49.306;8.636;2024-01-15T03:10:43;99536.80;;;-1.60;85.47
25944;BME280;13742;49.306;8.636;2024-01-15T03:11:43;99531.12;;;-1.61;85.47
25944;BME280;13742;49.306;8.636;2024-01-15T03:12:43;99526.86;;;-1.61;85.50
25944;BME280;13742;49.306;8.636;2024-01-15T03:13:43;99529.14;;;-1.62;85.60
25944;BME280;13742;49.306;8.636;2024-01-15T03:14:43;99524.86;;;-1.62;85.64
25944;BME280;13742;49.306;8.636;2024-01-15T03:15:43;99522.34;;;-1.62;85.54
25944;BME280;13742;49.306;8.636;2024-01-15T03:16:43;99516.56;;;-1.62;85.46
25944;BME280;13742;49.306;8.636;2024-01-15T03:17:43;99512.14;;;-1.62;85.50
25944;BME280;13742;49.306;8.636;2024-01-15T03:18:43;99511.33;;;-1.60;85.64
25944;BME280;13742;49.306;8.636;2024-01-15T03:19:43;99504.70;;;-1.62;85.56
25944;BME280;13742;49.306;8.636;2024-01-15T03:20:43;99505.83;;;-1.61;85.62
25944;BME280;13742;49.306;8.636;2024-01-15T03:21:43;99509.44;;;-1.61;85.62
25944;BME280;13742;49.306;8.636;2024-01-15T03:22:43;99511.83;;;-1.62;85.56
25944;BME280;13742;49.306;8.636;2024-01-15T03:23:43;99517.06;;;-1.60;85.45
25944;BME280;13742;49.306;8.636;2024-01-15T03:24:43;99521.91;;;-1.58;85.56
25944;BME280;13742;49.306;8.636;2024-01-15T03:25:44;99525.47;;;-1.58;85.50
25944;BME280;13742;49.306;8.636;2024-01-15T03:26:43;99529.70;;;-1.57;85.67
25944;BME280;13742;49.306;8.636;2024-01-15T03:27:43;99539.78;;;-1.58;85.65
25944;BME280;13742;49.306;8.636;2024-01-15T03:28:43;99546.08;;;-1.55;85.63
25944;BME280;13742;49.306;8.636;2024-01-15T03:29:43;99546.47;;;-1.55;85.53
25944;BME280;13742;49.306;8.636;2024-01-15T03:30:43;99545.39;;;-1.57;85.61
25944;BME280;13742;49.306;8.636;2024-01-15T03:31:43;99553.03;;;-1.55;85.64
25944;BME280;13742;49.306;8.636;2024-01-15T03:32:43;99550.91;;;-1.54;85.70
25944;BME280;13742;49.306;8.636;2024-01-15T03:33:43;99545.70;;;-1.54;85.52
25944;BME280;13742;49.306;8.636;2024-01-15T03:34:43;99547.16;;;-1.54;85.58
25944;BME280;13742;49.306;8.636;2024-01-15T03:35:43;99547.87;;;-1.53;85.44
25944;BME280;13742;49.306;8.636;2024-01-15T03:36:43;99542.53;;;-1.54;85.53
25944;BME280;13742;49.306;8.636;2024-01-15T03:37:43;99539.66;;;-1.54;85.47
25944;BME280;13742;49.306;8.636;2024-01-15T03:38:43;99538.00;;;-1.54;85.66
25944;BME280;13742;49.306;8.636;2024-01-15T03:39:43;99531.70;;;-1.55;85.62
25944;BME280;13742;49.306;8.636;2024-01-15T03:40:43;99530.08;;;-1.55;85.66
25944;BME280;13742;49.306;8.636;2024-01-15T03:41:43;99526.33;;;-1.55;85.66
25944;BME280;13742;49.306;8.636;2024-01-15T03:42:43;99528.34;;;-1.55;85.72
25944;BME280;13742;49.306;8.636;2024-01-15T03:43:43;99526.56;;;-1.55;85.68
25944;BME280;13742;49.306;8.636;2024-01-15T03:44:43;99532.70;;;-1.54;85.60
25944;BME280;13742;49.306;8.636;2024-01-15T03:45:43;99530.65;;;-1.54;85.66
25944;BME280;13742;49.306;8.636;2024-01-15T03:46:43;99531.13;;;-1.54;85.72
25944;BME280;13742;49.306;8.636;2024-01-15T03:47:43;99532.98;;;-1.54;85.61
25944;BME280;13742;49.306;8.636;2024-01-15T03:48:43;99536.29;;;-1.53;85.74
25944;BME280;13742;49.306;8.636;2024-01-15T03:49:43;99543.01;;;-1.52;85.62
25944;BME280;13742;49.306;8.636;2024-01-15T03:50:43;99536.66;;;-1.53;85.50
25944;BME280;13742;49.306;8.636;2024-01-15T03:51:44;99540.22;;;-1.53;85.56
25944;BME280;13742;49.306;8.636;2024-01-15T03:52:43;99531.20;;;-1.53;85.67
25944;BME280;13742;49.306;8.636;2024-01-15T03:53:43;99524.20;;;-1.53;85.53
25944;BME280;13742;49.306;8.636;2024-01-15T03:54:43;99522.78;;;-1.53;85.67
25944;BME280;13742;49.306;8.636;2024-01-15T03:55:43;99527.91;;;-1.51;85.77
25944;BME280;13742;49.306;8.636;2024-01-15T03:56:43;99529.05;;;-1.52;85.70
25944;BME280;13742;49.306;8.636;2024-01-15T03:57:43;99532.61;;;-1.52;85.56
25944;BME280;13742;49.306;8.636;2024-01-15T03:58:43;99533.53;;;-1.52;85.74
25944;BME280;13742;49.306;8.636;2024-01-15T03:59:43;99527.38;;;-1.51;85.79
25944;BME280;13742;49.306;8.636;2024-01-15T04:00:43;99514.59;;;-1.51;85.83
25944;BME280;13742;49.306;8.636;2024-01-15T04:02:44;99508.97;;;-1.51;85.81
25944;BME280;13742;49.306;8.636;2024-01-15T04:03:43;99506.45;;;-1.51;85.80
25944;BME280;13742;49.306;8.636;2024-01-15T04:04:43;99508.59;;;-1.50;85.89
25944;BME280;13742;49.306;8.636;2024-01-15T04:05:43;99510.27;;;-1.51;85.74
25944;BME280;13742;49.306;8.636;2024-01-15T04:06:43;99506.66;;;-1.51;85.96
25944;BME280;13742;49.306;8.636;2024-01-15T04:07:43;99504.19;;;-1.52;85.86
25944;BME280;13742;49.306;8.636;2024-01-15T04:08:43;99508.07;;;-1.51;86.01
25944;BME280;13742;49.306;8.636;2024-01-15T04:09:43;99506.78;;;-1.51;85.85
25944;BME280;13742;49.306;8.636;2024-01-15T04:10:43;99499.98;;;-1.52;85.96
25944;BME280;13742;49.306;8.636;2024-01-15T04:11:43;99501.43;;;-1.50;85.91
25944;BME280;13742;49.306;8.636;2024-01-15T04:12:43;99500.39;;;-1.51;85.98
25944;BME280;13742;49.306;8.636;2024-01-15T04:13:43;99503.48;;;-1.49;86.16
25944;BME280;13742;49.306;8.636;2024-01-15T04:14:43;99503.47;;;-1.48;86.19
25944;BME280;13742;49.306;8.636;2024-01-15T04:15:43;99509.09;;;-1.47;86.32
25944;BME280;13742;49.306;8.636;2024-01-15T04:16:43;99509.53;;;-1.47;86.27
25944;BME280;13742;49.306;8.636;2024-01-15T04:17:43;99510.30;;;-1.47;86.21
25944;BME280;13742;49.306;8.636;2024-01-15T04:18:43;99509.53;;;-1.47;86.23
25944;BME280;13742;49.306;8.636;2024-01-15T04:19:44;99506.55;;;-1.48;86.09
25944;BME280;13742;49.306;8.636;2024-01-15T04:20:43;99505.33;;;-1.48;86.10
25944;BME280;13742;49.306;8.636;2024-01-15T04:21:43;99500.35;;;-1.47;86.19
25944;BME280;13742;49.306;8.636;2024-01-15T04:22:43;99500.19;;;-1.47;86.25
25944;BME280;13742;49.306;8.636;2024-01-15T04:23:44;99496.25;;;-1.46;86.20
25944;BME280;13742;49.306;8.636;2024-01-15T04:24:43;99499.97;;;-1.46;86.19
25944;BME280;13742;49.306;8.636;2024-01-15T04:25:43;99500.48;;;-1.45;86.32
25944;BME280;13742;49.306;8.636;2024-01-15T04:26:43;99503.00;;;-1.45;86.39
25944;BME280;13742;49.306;8.636;2024-01-15T04:27:43;99498.84;;;-1.46;86.33
25944;BME280;13742;49.306;8.636;2024-01-15T04:28:43;99495.34;;;-1.45;86.25
25944;BME280;13742;49.306;8.636;2024-01-15T04:29:44;99493.13;;;-1.45;86.19
25944;BME280;13742;49.306;8.636;2024-01-15T04:30:43;99491.98;;;-1.45;86.19
25944;BME280;13742;49.306;8.636;2024-01-15T04:31:43;99490.58;;;-1.46;86.19
25944;BME280;13742;49.306;8.636;2024-01-15T04:32:43;99491.67;;;-1.45;86.28
25944;BME280;13742;49.306;8.636;2024-01-15T04:33:43;99490.25;;;-1.46;86.18
25944;BME280;13742;49.306;8.636;2024-01-15T04:34:43;99486.44;;;-1.45;86.26
25944;BME280;13742;49.306;8.636;2024-01-15T04:35:43;99494.70;;;-1.46;86.30
25944;BME280;13742;49.306;8.636;2024-01-15T04:36:43;99496.52;;;-1.45;86.30
25944;BME280;13742;49.306;8.636;2024-01-15T04:37:43;99491.14;;;-1.45;86.28
25944;BME280;13742;49.306;8.636;2024-01-15T04:38:43;99492.55;;;-1.45;86.45
25944;BME280;13742;49.306;8.636;2024-01-15T04:39:43;99487.29;;;-1.45;86.30
25944;BME280;13742;49.306;8.636;2024-01-15T04:40:43;99482.11;;;-1.45;86.43
25944;BME280;13742;49.306;8.636;2024-01-15T04:41:43;99485.34;;;-1.45;86.37
25944;BME280;13742;49.306;8.636;2024-01-15T04:42:45;99484.61;;;-1.44;86.32
25944;BME280;13742;49.306;8.636;2024-01-15T04:43:43;99480.33;;;-1.45;86.29
25944;BME280;13742;49.306;8.636;2024-01-15T04:44:43;99479.63;;;-1.44;86.28
25944;BME280;13742;49.306;8.636;2024-01-15T04:45:43;99482.38;;;-1.44;86.38
25944;BME280;13742;49.306;8.636;2024-01-15T04:46:43;99483.76;;;-1.44;86.28
25944;BME280;13742;49.306;8.636;2024-01-15T04:47:43;99487.52;;;-1.43;86.37
25944;BME280;13742;49.306;8.636;2024-01-15T04:48:43;99484.31;;;-1.43;86.38
25944;BME280;13742;49.306;8.636;2024-01-15T04:49:43;99482.94;;;-1.42;86.49
25944;BME280;13742;49.306;8.636;2024-01-15T04:50:43;99487.02;;;-1.42;86.50
25944;BME280;13742;49.306;8.636;2024-01-15T04:51:43;99484.23;;;-1.42;86.63
25944;BME280;13742;49.306;8.636;2024-01-15T04:52:43;99486.12;;;-1.41;86.50
25944;BME280;13742;49.306;8.636;2024-01-15T04:53:44;99481.35;;;-1.42;86.63
25944;BME280;13742;49.306;8.636;2024-01-15T04:54:43;99483.97;;;-1.41;86.74
25944;BME280;13742;49.306;8.636;2024-01-15T04:55:43;99483.69;;;-1.41;86.51
25944;BME280;13742;49.306;8.636;2024-01-15T04:56:43;99484.66;;;-1.41;86.50
25944;BME280;13742;49.306;8.636;2024-01-15T04:57:43;99479.80;;;-1.41;86.56
25944;BME280;13742;49.306;8.636;2024-01-15T04:58:43;99479.95;;;-1.41;86.54
25944;BME280;13742;49.306;8.636;2024-01-15T04:59:43;99482.49;;;-1.39;86.62
25944;BME280;13742;49.306;8.636;2024-01-15T05:00:43;99481.37;;;-1.40;86.76
25944;BME280;13742;49.306;8.636;2024-01-15T05:01:43;99486.66;;;-1.39;86.74
25944;BME280;13742;49.306;8.636;2024-01-15T05:02:43;99482.22;;;-1.40;86.75
25944;BME280;13742;49.306;8.636;2024-01-15T05:03:43;99483.75;;;-1.39;86.72
25944;BME280;13742;49.306;8.636;2024-01-15T05:04:43;99481.80;;;-1.39;86.77
25944;BME280;13742;49.306;8.636;2024-01-15T05:05:43;99483.43;;;-1.40;86.76
25944;BME280;13742;49.306;8.636;2024-01-15T05:06:43;99484.06;;;-1.39;86.83
25944;BME280;13742;49.306;8.636;2024-01-15T05:07:43;99482.57;;;-1.39;86.75
25944;BME280;13742;49.306;8.636;2024-01-15T05:08:43;99486.77;;;-1.38;86.70
25944;BME280;13742;49.306;8.636;2024-01-15T05:09:43;99485.35;;;-1.38;86.72
25944;BME280;13742;49.306;8.636;2024-01-15T05:10:43;99482.95;;;-1.37;86.79
25944;BME280;13742;49.306;8.636;2024-01-15T05:11:43;99480.36;;;-1.37;86.73
25944;BME280;13742;49.306;8.636;2024-01-15T05:12:43;99479.53;;;-1.39;86.84
25944;BME280;13742;49.306;8.636;2024-01-15T05:13:43;99482.59;;;-1.38;86.74
25944;BME280;13742;49.306;8.636;2024-01-15T05:14:43;99479.66;;;-1.39;86.87
25944;BME280;13742;49.306;8.636;2024-01-15T05:15:43;99481.84;;;-1.39;86.90
25944;BME280;13742;49.306;8.636;2024-01-15T05:17:43;99480.73;;;-1.38;86.93
25944;BME280;13742;49.306;8.636;2024-01-15T05:18:43;99482.49;;;-1.39;86.90
25944;BME280;13742;49.306;8.636;2024-01-15T05:19:43;99479.66;;;-1.39;86.89
25944;BME280;13742;49.306;8.636;2024-01-15T05:20:43;99469.19;;;-1.40;86.89